Terminal Aerodrome Forecast
Issued by NWS Mt. Holly, NJ

Home | Current Version | Previous Version | Text Only | Print | Product List | Glossary On
Versions: 1 2 3 4 5 6 7 8 9 10 11 12 13
000
FTUS41 KPHI 191100
TAFABE
TAF
KABE 191136Z 1912/2012 VRB03KT P6SM BKN250
     FM191300 31007KT P6SM BKN250
     FM191600 35010G16KT P6SM SCT250
     FM192200 01008KT P6SM SCT250=

USA.gov is the U.S. government's official web portal to all federal, state and local government web resources and services.